Strona główna
METAR-TAF:

METAR-TAF

Lotnisko :

Port lotniczy Damaszek

Damaszek, Syria

Szerokość geograficzna: 33-25N, Długość geograficzna: 036-31E, wysokość: 608 m

Aktualna obserwacja pogody

Raport powstał 43 minut temu, godzina 02:00 UTC
Wiatr 10 kt od zachodnio-południowy zachód
Temperatura 13°C
Wilgotność 82%
Ciśnienie 1014 hPa
Widzialność 10 km lub więcej
Brak chmur poniżej 1500 m i brak chmur cumulonimbus

METAR: OSDI 040200Z 24010KT CAVOK 13/10 Q1014

czas: 05:43 (02:43 UTC)

Prognoza

Raport powstał 5 godziny i 13 minut temu, godzina 21:30 UTC
Prognoza ważna od 04 godzina 00 UTC do 05 godzina 06 UTC
Wiatr 12 kt od południowy zachód
Widzialność 10 km lub więcej
Brak chmur poniżej 1500 m i brak chmur cumulonimbus
Przejściowo
od 04 godzina 09 UTC do 04 godzina 18 UTC
Wiatr 15 kt od zachód w porywach dochodzący do 25 kt
Widzialność 10 km lub więcej
Mało chmury na wysokości 3000 ft

TAF: OSDI 032130Z 0400/0506 23012KT CAVOK TEMPO 0409/0418 28015G25KT 9999 FEW030

Obserwacja i prognoza pogody dla ponad 4000 lotnisk (raport METAR i TAF).

Dostępne stacje oznaczono żółtymi i czerwonymi punktami na mapie.

Najedź kursorem aby zobaczyć nazwę stacji.

Kliknij aby zobaczyć obserwacje i prognozy pogody.

Aby zmienić mapę: kliknij na zielony przycisk z czarnym krzyżykiem, aby powiększyć; na zielony przycisk z myślnikiem, aby pomniejszyć; na zielone strzałki, aby przejść do map sąsiednich.


METAR-TAF: